sensor_id;sensor_type;location;lat;lon;timestamp;pressure;altitude;pressure_sealevel;temperature;humidity
31239;BME280;17871;31.584;74.450;2023-01-15T00:00:19;98850.28;;;8.71;71.29
31239;BME280;17871;31.584;74.450;2023-01-15T00:03:09;98848.53;;;8.70;71.13
31239;BME280;17871;31.584;74.450;2023-01-15T00:06:02;98846.13;;;8.76;70.94
31239;BME280;17871;31.584;74.450;2023-01-15T00:08:52;98848.59;;;8.71;71.18
31239;BME280;17871;31.584;74.450;2023-01-15T00:11:42;98842.81;;;8.78;71.07
31239;BME280;17871;31.584;74.450;2023-01-15T00:14:31;98847.91;;;8.78;71.05
31239;BME280;17871;31.584;74.450;2023-01-15T00:17:20;98855.50;;;8.77;70.83
31239;BME280;17871;31.584;74.450;2023-01-15T00:20:10;98861.75;;;8.91;71.18
31239;BME280;17871;31.584;74.450;2023-01-15T00:23:00;98855.00;;;8.93;70.26
31239;BME280;17871;31.584;74.450;2023-01-15T00:25:49;98842.25;;;8.93;70.96
31239;BME280;17871;31.584;74.450;2023-01-15T00:28:58;98846.47;;;8.93;71.28
31239;BME280;17871;31.584;74.450;2023-01-15T00:31:57;98841.66;;;9.05;71.16
31239;BME280;17871;31.584;74.450;2023-01-15T00:34:47;98848.19;;;8.92;71.20
31239;BME280;17871;31.584;74.450;2023-01-15T00:37:36;98846.47;;;8.93;71.32
31239;BME280;17871;31.584;74.450;2023-01-15T00:40:25;98855.78;;;8.89;70.72
31239;BME280;17871;31.584;74.450;2023-01-15T00:43:15;98847.16;;;8.84;71.02
31239;BME280;17871;31.584;74.450;2023-01-15T00:46:04;98845.41;;;8.81;71.35
31239;BME280;17871;31.584;74.450;2023-01-15T00:48:56;98851.44;;;8.86;71.46
31239;BME280;17871;31.584;74.450;2023-01-15T00:51:45;98853.13;;;8.84;70.68
31239;BME280;17871;31.584;74.450;2023-01-15T00:54:36;98862.38;;;8.81;70.81
31239;BME280;17871;31.584;74.450;2023-01-15T00:57:25;98859.78;;;8.79;70.38
31239;BME280;17871;31.584;74.450;2023-01-15T01:00:15;98865.69;;;8.77;69.71
31239;BME280;17871;31.584;74.450;2023-01-15T01:03:06;98872.53;;;8.79;68.97
31239;BME280;17871;31.584;74.450;2023-01-15T01:06:00;98874.44;;;8.90;68.85
31239;BME280;17871;31.584;74.450;2023-01-15T01:08:49;98874.06;;;8.73;68.17
31239;BME280;17871;31.584;74.450;2023-01-15T01:11:39;98881.84;;;8.77;66.30
31239;BME280;17871;31.584;74.450;2023-01-15T01:14:29;98882.03;;;8.86;64.46
31239;BME280;17871;31.584;74.450;2023-01-15T01:17:19;98888.97;;;8.94;65.60
31239;BME280;17871;31.584;74.450;2023-01-15T01:20:11;98886.53;;;8.98;64.46
31239;BME280;17871;31.584;74.450;2023-01-15T01:23:00;98888.34;;;9.02;63.01
31239;BME280;17871;31.584;74.450;2023-01-15T01:25:50;98882.31;;;8.99;63.70
31239;BME280;17871;31.584;74.450;2023-01-15T01:28:40;98890.03;;;9.03;64.03
31239;BME280;17871;31.584;74.450;2023-01-15T01:31:30;98891.56;;;8.95;64.74
31239;BME280;17871;31.584;74.450;2023-01-15T01:34:20;98897.38;;;8.88;64.87
31239;BME280;17871;31.584;74.450;2023-01-15T01:37:09;98898.06;;;8.81;63.51
31239;BME280;17871;31.584;74.450;2023-01-15T01:39:59;98900.59;;;8.81;64.59
31239;BME280;17871;31.584;74.450;2023-01-15T01:42:48;98903.09;;;8.78;64.11
31239;BME280;17871;31.584;74.450;2023-01-15T01:45:38;98908.13;;;8.75;64.18
31239;BME280;17871;31.584;74.450;2023-01-15T01:48:30;98914.16;;;8.80;64.77
31239;BME280;17871;31.584;74.450;2023-01-15T01:51:24;98925.25;;;8.82;64.74
31239;BME280;17871;31.584;74.450;2023-01-15T01:54:14;98906.88;;;8.95;63.93
31239;BME280;17871;31.584;74.450;2023-01-15T01:57:05;98918.31;;;8.75;64.29
31239;BME280;17871;31.584;74.450;2023-01-15T01:59:56;98925.97;;;8.76;65.24
31239;BME280;17871;31.584;74.450;2023-01-15T02:02:48;98923.47;;;8.78;65.23
31239;BME280;17871;31.584;74.450;2023-01-15T02:05:45;98917.69;;;8.86;64.80
31239;BME280;17871;31.584;74.450;2023-01-15T02:08:36;98913.22;;;8.76;65.21
31239;BME280;17871;31.584;74.450;2023-01-15T02:11:28;98912.53;;;8.82;64.81
31239;BME280;17871;31.584;74.450;2023-01-15T02:14:42;98918.75;;;8.96;64.75
31239;BME280;17871;31.584;74.450;2023-01-15T02:18:26;98914.50;;;8.95;64.48
31239;BME280;17871;31.584;74.450;2023-01-15T02:21:45;98911.97;;;8.97;64.63
31239;BME280;17871;31.584;74.450;2023-01-15T02:24:55;98912.84;;;8.97;65.16
31239;BME280;17871;31.584;74.450;2023-01-15T02:27:54;98910.28;;;8.96;63.91
31239;BME280;17871;31.584;74.450;2023-01-15T02:31:04;98904.38;;;8.98;63.75
31239;BME280;17871;31.584;74.450;2023-01-15T02:34:32;98912.91;;;9.00;63.75
31239;BME280;17871;31.584;74.450;2023-01-15T02:37:29;98916.84;;;8.86;64.74
31239;BME280;17871;31.584;74.450;2023-01-15T02:40:20;98918.97;;;9.05;63.67
31239;BME280;17871;31.584;74.450;2023-01-15T02:43:13;98915.38;;;8.96;63.67
31239;BME280;17871;31.584;74.450;2023-01-15T02:46:04;98929.75;;;8.92;63.54
31239;BME280;17871;31.584;74.450;2023-01-15T02:48:56;98937.50;;;8.98;63.19
31239;BME280;17871;31.584;74.450;2023-01-15T02:52:00;98947.66;;;8.95;63.05
31239;BME280;17871;31.584;74.450;2023-01-15T02:55:10;98949.34;;;9.35;62.73
31239;BME280;17871;31.584;74.450;2023-01-15T02:58:08;98943.44;;;9.37;62.99
31239;BME280;17871;31.584;74.450;2023-01-15T03:01:06;98953.91;;;9.50;62.40
31239;BME280;17871;31.584;74.450;2023-01-15T03:04:06;98965.13;;;9.58;62.84
31239;BME280;17871;31.584;74.450;2023-01-15T03:07:05;98966.97;;;9.65;61.61
31239;BME280;17871;31.584;74.450;2023-01-15T03:09:57;98955.63;;;9.51;61.29
31239;BME280;17871;31.584;74.450;2023-01-15T03:12:59;98968.09;;;9.79;60.72
31239;BME280;17871;31.584;74.450;2023-01-15T03:22:59;98972.94;;;10.10;59.78
31239;BME280;17871;31.584;74.450;2023-01-15T03:25:50;98970.28;;;10.04;60.67
31239;BME280;17871;31.584;74.450;2023-01-15T03:28:40;98975.78;;;10.25;59.91
31239;BME280;17871;31.584;74.450;2023-01-15T03:31:33;98978.50;;;10.33;58.09
31239;BME280;17871;31.584;74.450;2023-01-15T03:34:24;98982.72;;;10.32;57.86
31239;BME280;17871;31.584;74.450;2023-01-15T03:37:21;98987.34;;;10.53;57.29
31239;BME280;17871;31.584;74.450;2023-01-15T03:40:13;98988.28;;;10.57;57.47
31239;BME280;17871;31.584;74.450;2023-01-15T03:43:08;98990.19;;;10.70;57.19
31239;BME280;17871;31.584;74.450;2023-01-15T03:47:18;98993.16;;;10.97;56.27
31239;BME280;17871;31.584;74.450;2023-01-15T03:49:40;98996.63;;;10.99;55.71
31239;BME280;17871;31.584;74.450;2023-01-15T03:56:30;99004.03;;;11.41;54.82
31239;BME280;17871;31.584;74.450;2023-01-15T03:59:28;99004.91;;;11.43;54.54
31239;BME280;17871;31.584;74.450;2023-01-15T04:02:22;99007.50;;;11.46;53.57
31239;BME280;17871;31.584;74.450;2023-01-15T04:05:14;99017.09;;;11.61;53.57
31239;BME280;17871;31.584;74.450;2023-01-15T04:08:07;99015.41;;;11.63;53.28
31239;BME280;17871;31.584;74.450;2023-01-15T04:10:59;99025.88;;;11.78;53.17
31239;BME280;17871;31.584;74.450;2023-01-15T04:13:52;99020.72;;;11.75;52.21
31239;BME280;17871;31.584;74.450;2023-01-15T04:17:02;99031.97;;;11.89;52.93
31239;BME280;17871;31.584;74.450;2023-01-15T04:19:52;99032.91;;;11.95;53.03
31239;BME280;17871;31.584;74.450;2023-01-15T04:22:43;99028.84;;;12.11;52.60
31239;BME280;17871;31.584;74.450;2023-01-15T04:25:33;99029.81;;;12.25;52.44
31239;BME280;17871;31.584;74.450;2023-01-15T04:28:22;99034.00;;;12.14;52.04
31239;BME280;17871;31.584;74.450;2023-01-15T04:31:12;99037.59;;;12.31;50.62
31239;BME280;17871;31.584;74.450;2023-01-15T04:34:02;99034.97;;;12.28;50.08
31239;BME280;17871;31.584;74.450;2023-01-15T04:36:53;99034.22;;;12.37;50.05
31239;BME280;17871;31.584;74.450;2023-01-15T04:39:42;99030.72;;;12.29;49.61
31239;BME280;17871;31.584;74.450;2023-01-15T04:42:32;99032.69;;;12.56;48.93
31239;BME280;17871;31.584;74.450;2023-01-15T04:45:39;99030.16;;;12.59;49.10
31239;BME280;17871;31.584;74.450;2023-01-15T04:48:29;99038.81;;;12.70;48.70
31239;BME280;17871;31.584;74.450;2023-01-15T04:51:19;99041.44;;;12.76;48.09
31239;BME280;17871;31.584;74.450;2023-01-15T04:54:10;99033.84;;;12.91;47.99
31239;BME280;17871;31.584;74.450;2023-01-15T04:57:00;99027.00;;;12.87;47.88
31239;BME280;17871;31.584;74.450;2023-01-15T04:59:49;99024.50;;;12.97;48.30
31239;BME280;17871;31.584;74.450;2023-01-15T05:02:39;99024.69;;;13.17;48.81
31239;BME280;17871;31.584;74.450;2023-01-15T05:05:28;99028.91;;;13.09;46.78
31239;BME280;17871;31.584;74.450;2023-01-15T05:08:20;99032.47;;;13.26;46.41
31239;BME280;17871;31.584;74.450;2023-01-15T05:11:09;99026.53;;;13.38;45.62
31239;BME280;17871;31.584;74.450;2023-01-15T05:13:58;99030.88;;;13.43;46.17
31239;BME280;17871;31.584;74.450;2023-01-15T05:16:48;99012.94;;;13.56;46.01
31239;BME280;17871;31.584;74.450;2023-01-15T05:19:37;99018.97;;;13.64;46.50
31239;BME280;17871;31.584;74.450;2023-01-15T05:22:27;99012.19;;;13.81;45.51
31239;BME280;17871;31.584;74.450;2023-01-15T05:25:16;99005.38;;;13.84;45.70
31239;BME280;17871;31.584;74.450;2023-01-15T05:28:06;99013.09;;;13.86;45.30
31239;BME280;17871;31.584;74.450;2023-01-15T05:30:55;99010.53;;;13.89;44.02
31239;BME280;17871;31.584;74.450;2023-01-15T05:33:46;99004.63;;;14.16;44.80
31239;BME280;17871;31.584;74.450;2023-01-15T05:36:36;99014.06;;;14.24;45.09
31239;BME280;17871;31.584;74.450;2023-01-15T05:39:26;99008.97;;;14.36;44.79
31239;BME280;17871;31.584;74.450;2023-01-15T05:42:15;99010.66;;;14.25;44.13
31239;BME280;17871;31.584;74.450;2023-01-15T05:45:05;99004.69;;;14.40;44.01
31239;BME280;17871;31.584;74.450;2023-01-15T05:47:54;99000.41;;;14.46;44.07
31239;BME280;17871;31.584;74.450;2023-01-15T05:50:44;99001.28;;;14.56;44.14
31239;BME280;17871;31.584;74.450;2023-01-15T05:53:34;98990.16;;;14.65;44.73
31239;BME280;17871;31.584;74.450;2023-01-15T05:56:23;98995.28;;;14.66;45.20
31239;BME280;17871;31.584;74.450;2023-01-15T05:59:16;98991.88;;;14.75;43.49
31239;BME280;17871;31.584;74.450;2023-01-15T06:02:06;98992.72;;;15.01;44.36
31239;BME280;17871;31.584;74.450;2023-01-15T06:04:56;98992.72;;;15.10;44.15
31239;BME280;17871;31.584;74.450;2023-01-15T06:07:49;98993.56;;;15.12;43.28
31239;BME280;17871;31.584;74.450;2023-01-15T06:10:43;98996.13;;;15.18;42.12
31239;BME280;17871;31.584;74.450;2023-01-15T06:13:33;98996.94;;;15.38;43.65
31239;BME280;17871;31.584;74.450;2023-01-15T06:16:23;98989.22;;;15.40;42.00
31239;BME280;17871;31.584;74.450;2023-01-15T06:19:13;98986.63;;;15.44;42.40
31239;BME280;17871;31.584;74.450;2023-01-15T06:22:02;98984.94;;;15.54;42.53
31239;BME280;17871;31.584;74.450;2023-01-15T06:24:52;98969.44;;;15.60;43.34
31239;BME280;17871;31.584;74.450;2023-01-15T06:27:41;98966.00;;;15.61;44.38
31239;BME280;17871;31.584;74.450;2023-01-15T06:30:34;98959.13;;;15.66;43.24
31239;BME280;17871;31.584;74.450;2023-01-15T06:33:26;98950.59;;;15.53;43.03
31239;BME280;17871;31.584;74.450;2023-01-15T06:36:18;98949.59;;;15.79;41.72
31239;BME280;17871;31.584;74.450;2023-01-15T06:39:11;98948.84;;;15.58;41.58
31239;BME280;17871;31.584;74.450;2023-01-15T06:42:00;98945.38;;;15.63;42.42
31239;BME280;17871;31.584;74.450;2023-01-15T06:45:11;98933.19;;;15.99;41.68
31239;BME280;17871;31.584;74.450;2023-01-15T06:48:19;98934.09;;;15.88;39.53
31239;BME280;17871;31.584;74.450;2023-01-15T06:51:09;98924.72;;;15.75;36.71
31239;BME280;17871;31.584;74.450;2023-01-15T06:54:01;98925.53;;;15.83;36.33
31239;BME280;17871;31.584;74.450;2023-01-15T06:56:50;98915.91;;;16.12;37.58
31239;BME280;17871;31.584;74.450;2023-01-15T06:59:40;98910.03;;;15.87;36.21
31239;BME280;17871;31.584;74.450;2023-01-15T07:02:29;98903.91;;;16.09;35.46
31239;BME280;17871;31.584;74.450;2023-01-15T07:05:19;98902.88;;;16.27;34.49
31239;BME280;17871;31.584;74.450;2023-01-15T07:08:08;98902.88;;;16.32;32.82
31239;BME280;17871;31.584;74.450;2023-01-15T07:11:06;98893.47;;;16.26;33.83
31239;BME280;17871;31.584;74.450;2023-01-15T07:13:56;98892.56;;;16.27;33.62
31239;BME280;17871;31.584;74.450;2023-01-15T07:16:55;98896.81;;;16.37;32.97
31239;BME280;17871;31.584;74.450;2023-01-15T07:19:45;98886.50;;;16.34;32.52
31239;BME280;17871;31.584;74.450;2023-01-15T07:22:34;98882.06;;;16.51;32.58
31239;BME280;17871;31.584;74.450;2023-01-15T07:25:24;98875.16;;;16.56;32.70
31239;BME280;17871;31.584;74.450;2023-01-15T07:28:13;98877.72;;;16.63;32.91
31239;BME280;17871;31.584;74.450;2023-01-15T07:31:02;98871.59;;;16.70;33.27
31239;BME280;17871;31.584;74.450;2023-01-15T07:33:54;98865.50;;;16.77;33.15
31239;BME280;17871;31.584;74.450;2023-01-15T07:36:43;98861.28;;;16.70;31.35
31239;BME280;17871;31.584;74.450;2023-01-15T07:39:32;98860.44;;;16.68;31.01
31239;BME280;17871;31.584;74.450;2023-01-15T07:42:22;98856.09;;;16.76;31.79
31239;BME280;17871;31.584;74.450;2023-01-15T07:45:31;98858.75;;;16.64;30.48
31239;BME280;17871;31.584;74.450;2023-01-15T07:48:55;98856.09;;;16.74;30.72
31239;BME280;17871;31.584;74.450;2023-01-15T07:52:04;98849.91;;;16.87;30.27
31239;BME280;17871;31.584;74.450;2023-01-15T07:54:53;98847.47;;;16.74;30.60
31239;BME280;17871;31.584;74.450;2023-01-15T07:57:43;98843.06;;;16.83;30.62
31239;BME280;17871;31.584;74.450;2023-01-15T08:00:32;98834.28;;;17.01;30.89
31239;BME280;17871;31.584;74.450;2023-01-15T08:03:22;98829.91;;;17.06;29.55
31239;BME280;17871;31.584;74.450;2023-01-15T08:06:11;98829.16;;;16.98;30.24
31239;BME280;17871;31.584;74.450;2023-01-15T08:09:02;98829.09;;;17.04;31.09
31239;BME280;17871;31.584;74.450;2023-01-15T08:11:52;98815.19;;;17.14;32.19
31239;BME280;17871;31.584;74.450;2023-01-15T08:14:59;98806.50;;;17.20;32.92
31239;BME280;17871;31.584;74.450;2023-01-15T08:18:01;98795.25;;;17.24;32.96
31239;BME280;17871;31.584;74.450;2023-01-15T08:20:50;98801.50;;;17.09;33.87
31239;BME280;17871;31.584;74.450;2023-01-15T08:23:40;98801.28;;;17.24;34.55
31239;BME280;17871;31.584;74.450;2023-01-15T08:26:31;98800.38;;;17.28;34.78
31239;BME280;17871;31.584;74.450;2023-01-15T08:29:21;98795.03;;;17.42;34.85
31239;BME280;17871;31.584;74.450;2023-01-15T08:32:10;98782.13;;;17.40;34.95
31239;BME280;17871;31.584;74.450;2023-01-15T08:34:59;98787.34;;;17.37;35.92
31239;BME280;17871;31.584;74.450;2023-01-15T08:37:49;98773.47;;;17.44;35.39
31239;BME280;17871;31.584;74.450;2023-01-15T08:40:38;98765.63;;;17.49;36.37
31239;BME280;17871;31.584;74.450;2023-01-15T08:43:46;98766.63;;;17.42;35.48
31239;BME280;17871;31.584;74.450;2023-01-15T08:46:35;98765.91;;;17.31;35.03
31239;BME280;17871;31.584;74.450;2023-01-15T08:49:25;98759.72;;;17.39;35.49
31239;BME280;17871;31.584;74.450;2023-01-15T08:52:15;98758.00;;;17.41;35.72
31239;BME280;17871;31.584;74.450;2023-01-15T08:55:06;98754.47;;;17.48;36.46
31239;BME280;17871;31.584;74.450;2023-01-15T08:57:55;98748.41;;;17.49;35.28
31239;BME280;17871;31.584;74.450;2023-01-15T09:00:45;98750.22;;;17.44;36.61
31239;BME280;17871;31.584;74.450;2023-01-15T09:03:36;98749.53;;;17.30;36.04
31239;BME280;17871;31.584;74.450;2023-01-15T09:06:26;98744.88;;;17.55;36.30
31239;BME280;17871;31.584;74.450;2023-01-15T09:09:15;98738.06;;;17.51;36.19
31239;BME280;17871;31.584;74.450;2023-01-15T09:12:07;98731.91;;;17.59;36.02
31239;BME280;17871;31.584;74.450;2023-01-15T09:14:56;98732.75;;;17.60;35.76
31239;BME280;17871;31.584;74.450;2023-01-15T09:17:50;98725.22;;;17.45;35.93
31239;BME280;17871;31.584;74.450;2023-01-15T09:20:39;98725.72;;;17.70;34.95
31239;BME280;17871;31.584;74.450;2023-01-15T09:23:28;98723.94;;;17.75;34.64
31239;BME280;17871;31.584;74.450;2023-01-15T09:26:35;98722.84;;;17.88;35.19
31239;BME280;17871;31.584;74.450;2023-01-15T09:29:25;98714.41;;;17.77;35.92
31239;BME280;17871;31.584;74.450;2023-01-15T09:32:17;98711.22;;;17.61;35.50
31239;BME280;17871;31.584;74.450;2023-01-15T09:35:07;98710.25;;;17.68;35.88
31239;BME280;17871;31.584;74.450;2023-01-15T09:37:56;98704.34;;;17.61;34.91
31239;BME280;17871;31.584;74.450;2023-01-15T09:40:59;98702.50;;;17.68;35.05
31239;BME280;17871;31.584;74.450;2023-01-15T09:56:28;98692.16;;;17.67;35.92
31239;BME280;17871;31.584;74.450;2023-01-15T10:00:58;98684.56;;;17.57;35.55
31239;BME280;17871;31.584;74.450;2023-01-15T10:04:11;98681.72;;;17.73;35.82
31239;BME280;17871;31.584;74.450;2023-01-15T10:07:29;98672.50;;;17.58;36.47
31239;BME280;17871;31.584;74.450;2023-01-15T10:10:28;98678.59;;;17.52;35.41
31239;BME280;17871;31.584;74.450;2023-01-15T10:13:38;98670.59;;;17.69;35.02
31239;BME280;17871;31.584;74.450;2023-01-15T10:16:31;98671.59;;;17.60;35.05
31239;BME280;17871;31.584;74.450;2023-01-15T10:19:23;98672.66;;;17.46;35.25
31239;BME280;17871;31.584;74.450;2023-01-15T10:26:39;98665.50;;;17.65;35.63
31239;BME280;17871;31.584;74.450;2023-01-15T10:29:42;98662.13;;;17.59;35.99
31239;BME280;17871;31.584;74.450;2023-01-15T10:32:37;98656.28;;;17.47;36.18
31239;BME280;17871;31.584;74.450;2023-01-15T10:35:58;98652.78;;;17.49;34.95
31239;BME280;17871;31.584;74.450;2023-01-15T10:39:04;98654.38;;;17.59;35.23
31239;BME280;17871;31.584;74.450;2023-01-15T10:42:31;98646.69;;;17.55;35.38
31239;BME280;17871;31.584;74.450;2023-01-15T10:45:24;98647.72;;;17.43;35.48
31239;BME280;17871;31.584;74.450;2023-01-15T10:48:23;98644.50;;;17.29;35.21
31239;BME280;17871;31.584;74.450;2023-01-15T10:51:22;98654.63;;;17.44;35.44
31239;BME280;17871;31.584;74.450;2023-01-15T10:54:26;98647.84;;;17.37;35.20
31239;BME280;17871;31.584;74.450;2023-01-15T10:57:40;98643.53;;;17.36;34.43
31239;BME280;17871;31.584;74.450;2023-01-15T11:00:32;98648.69;;;17.36;34.34
31239;BME280;17871;31.584;74.450;2023-01-15T11:03:36;98645.84;;;17.54;34.30
31239;BME280;17871;31.584;74.450;2023-01-15T11:06:30;98637.41;;;17.43;35.56
31239;BME280;17871;31.584;74.450;2023-01-15T11:09:23;98634.41;;;17.16;34.18
31239;BME280;17871;31.584;74.450;2023-01-15T11:12:26;98631.59;;;17.31;33.43
31239;BME280;17871;31.584;74.450;2023-01-15T11:15:36;98630.72;;;17.30;33.73
31239;BME280;17871;31.584;74.450;2023-01-15T11:18:45;98634.28;;;17.23;33.71
31239;BME280;17871;31.584;74.450;2023-01-15T11:21:53;98632.53;;;17.25;33.89
31239;BME280;17871;31.584;74.450;2023-01-15T11:24:50;98629.19;;;17.19;34.05
31239;BME280;17871;31.584;74.450;2023-01-15T11:27:40;98637.94;;;17.10;34.37
31239;BME280;17871;31.584;74.450;2023-01-15T11:30:34;98628.56;;;17.03;34.52
31239;BME280;17871;31.584;74.450;2023-01-15T11:33:29;98629.34;;;17.08;34.63
31239;BME280;17871;31.584;74.450;2023-01-15T11:36:25;98631.06;;;17.09;34.37
31239;BME280;17871;31.584;74.450;2023-01-15T11:39:26;98625.91;;;17.09;34.41
31239;BME280;17871;31.584;74.450;2023-01-15T11:42:17;98631.16;;;17.03;35.19
31239;BME280;17871;31.584;74.450;2023-01-15T11:45:25;98633.88;;;16.94;35.57
31239;BME280;17871;31.584;74.450;2023-01-15T11:48:46;98627.78;;;16.98;34.99
31239;BME280;17871;31.584;74.450;2023-01-15T11:51:56;98631.34;;;16.91;35.06
31239;BME280;17871;31.584;74.450;2023-01-15T11:54:51;98626.16;;;16.92;36.05
31239;BME280;17871;31.584;74.450;2023-01-15T11:57:43;98632.38;;;16.76;36.33
31239;BME280;17871;31.584;74.450;2023-01-15T12:00:36;98639.34;;;16.73;36.87
31239;BME280;17871;31.584;74.450;2023-01-15T12:03:29;98633.53;;;16.55;37.65
31239;BME280;17871;31.584;74.450;2023-01-15T12:06:20;98637.94;;;16.44;37.90
31239;BME280;17871;31.584;74.450;2023-01-15T12:15:44;98647.78;;;16.12;38.70
31239;BME280;17871;31.584;74.450;2023-01-15T12:18:45;98651.34;;;16.00;39.30
31239;BME280;17871;31.584;74.450;2023-01-15T12:25:18;98647.34;;;15.74;40.74
31239;BME280;17871;31.584;74.450;2023-01-15T12:31:18;98650.13;;;15.46;41.60
31239;BME280;17871;31.584;74.450;2023-01-15T12:37:33;98643.44;;;15.24;43.70
31239;BME280;17871;31.584;74.450;2023-01-15T12:43:25;98660.72;;;15.07;44.70
31239;BME280;17871;31.584;74.450;2023-01-15T12:46:35;98655.63;;;14.98;45.31
31239;BME280;17871;31.584;74.450;2023-01-15T12:49:35;98663.38;;;14.95;45.24
31239;BME280;17871;31.584;74.450;2023-01-15T12:52:34;98662.53;;;14.90;45.53
31239;BME280;17871;31.584;74.450;2023-01-15T12:55:30;98663.41;;;14.87;45.63
31239;BME280;17871;31.584;74.450;2023-01-15T13:01:43;98665.97;;;14.87;46.72
31239;BME280;17871;31.584;74.450;2023-01-15T13:07:41;98681.53;;;14.60;48.34
31239;BME280;17871;31.584;74.450;2023-01-15T13:10:31;98679.03;;;14.43;48.90
31239;BME280;17871;31.584;74.450;2023-01-15T13:13:29;98681.56;;;14.49;49.46
31239;BME280;17871;31.584;74.450;2023-01-15T13:17:03;98690.16;;;14.51;49.69
31239;BME280;17871;31.584;74.450;2023-01-15T13:23:06;98700.47;;;14.36;50.15
31239;BME280;17871;31.584;74.450;2023-01-15T13:26:40;98703.91;;;14.20;50.40
31239;BME280;17871;31.584;74.450;2023-01-15T13:32:25;98707.34;;;14.22;50.57
31239;BME280;17871;31.584;74.450;2023-01-15T13:35:47;98707.34;;;14.25;51.50
31239;BME280;17871;31.584;74.450;2023-01-15T13:38:42;98703.06;;;14.14;51.32
31239;BME280;17871;31.584;74.450;2023-01-15T13:41:34;98707.41;;;13.98;51.62
31239;BME280;17871;31.584;74.450;2023-01-15T13:44:50;98714.25;;;14.13;51.69
31239;BME280;17871;31.584;74.450;2023-01-15T13:47:48;98719.38;;;14.11;51.64
31239;BME280;17871;31.584;74.450;2023-01-15T13:50:42;98714.25;;;14.02;52.47
31239;BME280;17871;31.584;74.450;2023-01-15T13:53:44;98714.22;;;14.08;52.07
31239;BME280;17871;31.584;74.450;2023-01-15T13:56:35;98725.38;;;13.93;51.82
31239;BME280;17871;31.584;74.450;2023-01-15T13:59:41;98722.78;;;13.99;52.56
31239;BME280;17871;31.584;74.450;2023-01-15T14:02:37;98727.06;;;13.93;52.41
31239;BME280;17871;31.584;74.450;2023-01-15T14:05:30;98729.66;;;13.93;52.34
31239;BME280;17871;31.584;74.450;2023-01-15T14:08:25;98735.66;;;13.84;53.83
31239;BME280;17871;31.584;74.450;2023-01-15T14:30:30;98754.47;;;13.61;55.65
31239;BME280;17871;31.584;74.450;2023-01-15T14:33:46;98752.78;;;13.55;56.39
31239;BME280;17871;31.584;74.450;2023-01-15T14:36:51;98751.91;;;13.42;57.16
31239;BME280;17871;31.584;74.450;2023-01-15T14:39:54;98754.47;;;13.44;56.51
31239;BME280;17871;31.584;74.450;2023-01-15T14:42:47;98769.84;;;13.29;57.74
31239;BME280;17871;31.584;74.450;2023-01-15T14:45:55;98774.09;;;13.22;57.56
31239;BME280;17871;31.584;74.450;2023-01-15T14:48:54;98773.22;;;13.14;57.78
31239;BME280;17871;31.584;74.450;2023-01-15T14:51:48;98773.25;;;13.19;58.55
31239;BME280;17871;31.584;74.450;2023-01-15T14:54:38;98785.13;;;13.08;58.35
31239;BME280;17871;31.584;74.450;2023-01-15T14:57:31;98785.22;;;13.14;58.67
31239;BME280;17871;31.584;74.450;2023-01-15T15:00:21;98790.31;;;13.11;58.14
31239;BME280;17871;31.584;74.450;2023-01-15T15:03:16;98791.19;;;13.17;57.74
31239;BME280;17871;31.584;74.450;2023-01-15T15:06:10;98787.75;;;13.15;58.12
31239;BME280;17871;31.584;74.450;2023-01-15T15:09:00;98800.63;;;13.20;58.71
31239;BME280;17871;31.584;74.450;2023-01-15T15:11:51;98803.09;;;13.06;58.13
31239;BME280;17871;31.584;74.450;2023-01-15T15:18:33;98801.44;;;13.11;58.73
31239;BME280;17871;31.584;74.450;2023-01-15T15:21:37;98806.56;;;13.14;58.25
31239;BME280;17871;31.584;74.450;2023-01-15T15:24:34;98822.75;;;12.99;59.82
31239;BME280;17871;31.584;74.450;2023-01-15T15:27:24;98821.81;;;12.84;60.68
31239;BME280;17871;31.584;74.450;2023-01-15T15:30:14;98823.47;;;12.76;60.88
31239;BME280;17871;31.584;74.450;2023-01-15T15:33:05;98816.63;;;12.75;61.55
31239;BME280;17871;31.584;74.450;2023-01-15T15:35:57;98817.50;;;12.77;62.05
31239;BME280;17871;31.584;74.450;2023-01-15T15:39:18;98838.03;;;12.77;63.03
31239;BME280;17871;31.584;74.450;2023-01-15T15:42:38;98830.28;;;12.72;63.58
31239;BME280;17871;31.584;74.450;2023-01-15T15:45:52;98826.78;;;12.57;63.76
31239;BME280;17871;31.584;74.450;2023-01-15T15:49:01;98830.16;;;12.49;63.88
31239;BME280;17871;31.584;74.450;2023-01-15T15:51:53;98842.13;;;12.51;63.85
31239;BME280;17871;31.584;74.450;2023-01-15T15:54:43;98841.25;;;12.48;64.13
31239;BME280;17871;31.584;74.450;2023-01-15T15:57:33;98845.53;;;12.49;64.28
31239;BME280;17871;31.584;74.450;2023-01-15T16:00:33;98841.34;;;12.58;64.77
31239;BME280;17871;31.584;74.450;2023-01-15T16:03:28;98843.00;;;12.51;64.27
31239;BME280;17871;31.584;74.450;2023-01-15T16:06:22;98845.53;;;12.46;64.25
31239;BME280;17871;31.584;74.450;2023-01-15T16:09:24;98848.16;;;12.54;64.11
31239;BME280;17871;31.584;74.450;2023-01-15T16:12:14;98845.47;;;12.40;63.94
31239;BME280;17871;31.584;74.450;2023-01-15T16:15:05;98846.28;;;12.33;65.45
31239;BME280;17871;31.584;74.450;2023-01-15T16:17:57;98853.94;;;12.32;66.07
31239;BME280;17871;31.584;74.450;2023-01-15T16:20:47;98854.78;;;12.28;65.50
31239;BME280;17871;31.584;74.450;2023-01-15T16:23:37;98853.91;;;12.24;65.57
31239;BME280;17871;31.584;74.450;2023-01-15T16:26:41;98849.69;;;12.35;65.99
31239;BME280;17871;31.584;74.450;2023-01-15T16:29:32;98859.00;;;12.23;65.96
31239;BME280;17871;31.584;74.450;2023-01-15T16:32:26;98857.25;;;12.17;66.83
31239;BME280;17871;31.584;74.450;2023-01-15T16:35:24;98859.84;;;12.20;67.19
31239;BME280;17871;31.584;74.450;2023-01-15T16:38:17;98857.25;;;12.17;66.49
31239;BME280;17871;31.584;74.450;2023-01-15T16:41:40;98856.50;;;12.30;66.34
31239;BME280;17871;31.584;74.450;2023-01-15T16:47:25;98857.25;;;12.17;64.47